createdAt,value
2023-02-19T00:00:42.914Z,2.74
2023-02-19T00:05:50.093Z,2.75
2023-02-19T00:11:01.029Z,2.79
2023-02-19T00:16:11.333Z,2.83
2023-02-19T00:21:19.439Z,2.82
2023-02-19T00:26:26.849Z,2.78
2023-02-19T00:31:35.963Z,2.72
2023-02-19T00:36:44.629Z,2.72
2023-02-19T00:41:51.866Z,2.76
2023-02-19T00:46:59.074Z,2.80
2023-02-19T00:52:06.508Z,2.83
2023-02-19T00:57:13.686Z,2.83
2023-02-19T01:02:20.872Z,2.81
2023-02-19T01:07:29.888Z,2.79
2023-02-19T01:12:37.120Z,2.80
2023-02-19T01:17:44.508Z,2.84
2023-02-19T01:22:51.899Z,2.90
2023-02-19T01:27:59.183Z,2.94
2023-02-19T01:33:06.685Z,2.95
2023-02-19T01:38:13.894Z,2.91
2023-02-19T01:43:21.274Z,2.86
2023-02-19T01:48:33.497Z,2.84
2023-02-19T01:53:43.926Z,2.87
2023-02-19T01:58:51.208Z,2.90
2023-02-19T02:03:58.630Z,2.91
2023-02-19T02:09:23.382Z,2.89
2023-02-19T02:14:35.401Z,2.84
2023-02-19T02:20:02.875Z,2.79
2023-02-19T02:25:35.656Z,2.76
2023-02-19T02:30:47.571Z,2.80
2023-02-19T02:35:59.486Z,2.82
2023-02-19T02:41:08.844Z,2.80
2023-02-19T02:46:24.361Z,2.75
2023-02-19T02:51:35.737Z,2.69
2023-02-19T02:56:47.799Z,2.66
2023-02-19T03:02:12.236Z,2.64
2023-02-19T03:07:19.932Z,2.60
2023-02-19T03:12:48.182Z,2.57
2023-02-19T03:18:19.304Z,2.50
2023-02-19T03:23:44.958Z,2.40
2023-02-19T03:29:12.251Z,2.33
2023-02-19T03:34:27.101Z,2.29
2023-02-19T03:39:44.616Z,2.25
2023-02-19T03:45:08.010Z,2.20
2023-02-19T03:50:21.222Z,2.14
2023-02-19T03:55:33.979Z,2.09
2023-02-19T04:00:45.721Z,2.08
2023-02-19T04:06:01.002Z,2.07
2023-02-19T04:11:10.740Z,2.04
2023-02-19T04:16:24.001Z,1.98
2023-02-19T04:21:33.450Z,1.92
2023-02-19T04:26:41.506Z,1.90
2023-02-19T04:31:47.114Z,1.91
2023-02-19T04:37:05.386Z,1.94
2023-02-19T04:42:13.398Z,1.99
2023-02-19T04:47:18.983Z,2.01
2023-02-19T04:52:26.205Z,1.99
2023-02-19T04:57:33.435Z,1.93
2023-02-19T05:02:40.686Z,1.87
2023-02-19T05:07:47.842Z,1.82
2023-02-19T05:12:57.933Z,1.81
2023-02-19T05:18:05.835Z,1.84
2023-02-19T05:23:13.087Z,1.92
2023-02-19T05:28:20.881Z,1.99
2023-02-19T05:33:28.698Z,1.96
2023-02-19T05:38:36.390Z,1.90
2023-02-19T05:43:45.328Z,1.83
2023-02-19T05:48:53.142Z,1.78
2023-02-19T05:54:00.727Z,1.79
2023-02-19T05:59:15.336Z,1.83
2023-02-19T06:04:23.607Z,1.84
2023-02-19T06:09:32.418Z,1.84
2023-02-19T06:14:39.610Z,1.83
2023-02-19T06:19:46.961Z,1.81
2023-02-19T06:24:55.342Z,1.81
2023-02-19T06:30:02.664Z,1.85
2023-02-19T06:35:10.573Z,1.90
2023-02-19T06:40:16.293Z,1.95
2023-02-19T06:45:24.405Z,1.98
2023-02-19T06:50:31.632Z,1.97
2023-02-19T06:55:40.437Z,1.96
2023-02-19T07:00:47.792Z,1.98
2023-02-19T07:05:55.029Z,2.03
2023-02-19T07:11:02.244Z,2.09
2023-02-19T07:16:11.378Z,2.16
2023-02-19T07:21:19.696Z,2.23
2023-02-19T07:26:27.158Z,2.32
2023-02-19T07:31:34.678Z,2.38
2023-02-19T07:36:42.064Z,2.46
2023-02-19T07:41:49.270Z,2.58
2023-02-19T07:47:06.635Z,2.74
2023-02-19T07:52:13.979Z,2.89
2023-02-19T07:57:21.249Z,3.00
2023-02-19T08:02:46.337Z,3.11
2023-02-19T08:07:53.551Z,3.22
2023-02-19T08:13:19.580Z,3.43
2023-02-19T08:18:28.471Z,3.80
2023-02-19T08:23:35.907Z,4.28
2023-02-19T08:28:43.198Z,4.83
2023-02-19T08:33:50.624Z,5.52
2023-02-19T08:38:57.850Z,6.09
2023-02-19T08:44:05.359Z,6.43
2023-02-19T08:49:12.454Z,6.52
2023-02-19T08:54:19.652Z,6.50
2023-02-19T08:59:26.975Z,6.48
2023-02-19T09:04:34.543Z,6.43
2023-02-19T09:09:41.818Z,6.56
2023-02-19T09:14:49.117Z,6.60
2023-02-19T09:19:56.427Z,6.58
2023-02-19T09:25:03.749Z,6.67
2023-02-19T09:30:12.120Z,6.85
2023-02-19T09:35:19.530Z,7.24
2023-02-19T09:40:26.932Z,7.75
2023-02-19T09:45:36.038Z,8.27
2023-02-19T09:50:48.387Z,8.47
2023-02-19T09:55:56.714Z,8.30
2023-02-19T10:01:08.019Z,8.47
2023-02-19T10:06:20.636Z,8.34
2023-02-19T10:11:28.728Z,7.78
2023-02-19T10:16:41.780Z,7.65
2023-02-19T10:21:51.959Z,7.78
2023-02-19T10:26:59.692Z,7.67
2023-02-19T10:32:23.965Z,7.60
2023-02-19T10:37:31.320Z,7.57
2023-02-19T10:42:49.276Z,7.53
2023-02-19T10:47:56.550Z,7.22
2023-02-19T10:53:04.011Z,6.90
2023-02-19T10:58:28.670Z,6.51
2023-02-19T11:03:36.024Z,6.35
2023-02-19T11:08:58.798Z,6.27
2023-02-19T11:14:15.630Z,6.22
2023-02-19T11:19:33.033Z,6.11
2023-02-19T11:24:41.460Z,5.92
2023-02-19T11:29:48.889Z,5.75
2023-02-19T11:35:17.943Z,5.59
2023-02-19T11:40:35.020Z,5.41
2023-02-19T11:45:51.583Z,5.38
2023-02-19T11:51:13.680Z,5.41
2023-02-19T11:56:25.032Z,5.49
2023-02-19T12:02:03.515Z,5.64
2023-02-19T12:07:22.717Z,5.76
2023-02-19T12:12:44.372Z,5.95
2023-02-19T12:18:06.782Z,6.20
2023-02-19T12:23:45.452Z,6.49
2023-02-19T12:29:32.488Z,6.74
2023-02-19T12:35:22.192Z,6.95
2023-02-19T12:40:40.620Z,7.17
2023-02-19T12:45:54.178Z,7.24
2023-02-19T12:51:06.395Z,7.19
2023-02-19T12:56:20.117Z,7.10
2023-02-19T13:01:32.487Z,6.93
2023-02-19T13:06:46.718Z,6.80
2023-02-19T13:12:00.545Z,6.75
2023-02-19T13:17:16.979Z,6.70
2023-02-19T13:22:50.754Z,6.62
2023-02-19T13:28:12.864Z,6.57
2023-02-19T13:33:35.345Z,6.50
2023-02-19T13:38:45.300Z,6.43
2023-02-19T13:44:00.822Z,6.42
2023-02-19T13:49:43.017Z,6.38
2023-02-19T13:54:51.481Z,6.28
2023-02-19T14:00:00.307Z,6.18
2023-02-19T14:05:11.234Z,6.10
2023-02-19T14:11:05.061Z,6.04
2023-02-19T14:16:32.828Z,5.98
2023-02-19T14:21:43.545Z,6.00
2023-02-19T14:26:51.123Z,6.00
2023-02-19T14:31:58.857Z,5.96
2023-02-19T14:37:13.342Z,5.88
2023-02-19T14:42:25.255Z,5.78
2023-02-19T14:47:35.244Z,5.65
2023-02-19T14:52:46.689Z,5.56
2023-02-19T14:57:56.430Z,5.47
2023-02-19T15:03:04.591Z,5.35
2023-02-19T15:08:19.895Z,5.23
2023-02-19T15:13:29.542Z,5.14
2023-02-19T15:18:38.532Z,5.02
2023-02-19T15:23:45.961Z,4.90
2023-02-19T15:29:02.678Z,4.74
2023-02-19T15:34:19.292Z,4.57
2023-02-19T15:39:30.978Z,4.40
2023-02-19T15:44:50.820Z,4.24
2023-02-19T15:50:05.011Z,4.11
2023-02-19T15:55:23.144Z,3.96
2023-02-19T16:00:38.740Z,3.82
2023-02-19T16:05:46.468Z,3.66
2023-02-19T16:10:58.868Z,3.50
2023-02-19T16:16:17.516Z,3.33
2023-02-19T16:21:29.520Z,3.17
2023-02-19T16:26:44.427Z,3.01
2023-02-19T16:31:55.811Z,2.85
2023-02-19T16:37:04.769Z,2.73
2023-02-19T16:42:19.498Z,2.62
2023-02-19T16:47:48.525Z,2.51
2023-02-19T16:52:57.602Z,2.43
2023-02-19T16:58:04.915Z,2.35
2023-02-19T17:03:15.469Z,2.27
2023-02-19T17:08:39.829Z,2.18
2023-02-19T17:13:48.207Z,2.09
2023-02-19T17:18:58.589Z,2.00
2023-02-19T17:24:06.143Z,1.91
2023-02-19T17:29:18.600Z,1.85
2023-02-19T17:34:25.980Z,1.77
2023-02-19T17:39:33.396Z,1.69
2023-02-19T17:44:40.870Z,1.60
2023-02-19T17:49:48.461Z,1.53
2023-02-19T17:54:58.569Z,1.46
2023-02-19T18:00:07.475Z,1.38
2023-02-19T18:05:20.158Z,1.29
2023-02-19T18:10:27.660Z,1.19
2023-02-19T18:15:34.975Z,1.09
2023-02-19T18:20:43.707Z,1.00
2023-02-19T18:25:51.442Z,0.91
2023-02-19T18:30:59.162Z,0.82
2023-02-19T18:36:11.001Z,0.74
2023-02-19T18:41:21.243Z,0.68
2023-02-19T18:46:29.409Z,0.63
2023-02-19T18:51:37.930Z,0.59
2023-02-19T18:56:49.004Z,0.55
2023-02-19T19:01:56.476Z,0.51
2023-02-19T19:07:03.848Z,0.48
2023-02-19T19:12:13.012Z,0.45
2023-02-19T19:17:21.716Z,0.44
2023-02-19T19:22:29.710Z,0.47
2023-02-19T19:27:38.749Z,0.51
2023-02-19T19:32:52.097Z,0.54
2023-02-19T19:38:00.239Z,0.52
2023-02-19T19:43:07.979Z,0.49
2023-02-19T19:48:15.841Z,0.45
2023-02-19T19:53:23.280Z,0.39
2023-02-19T19:58:30.534Z,0.33
2023-02-19T20:03:41.034Z,0.27
2023-02-19T20:08:48.316Z,0.22
2023-02-19T20:13:55.913Z,0.16
2023-02-19T20:19:03.370Z,0.12
2023-02-19T20:24:11.091Z,0.08
2023-02-19T20:29:18.588Z,0.04
2023-02-19T20:34:26.000Z,0.02
2023-02-19T20:39:34.087Z,0.04
2023-02-19T20:44:43.734Z,0.10
2023-02-19T20:49:56.730Z,0.17
2023-02-19T20:55:04.069Z,0.23
2023-02-19T21:00:15.761Z,0.26
2023-02-19T21:05:23.597Z,0.27
2023-02-19T21:10:30.892Z,0.28
2023-02-19T21:15:38.188Z,0.27
2023-02-19T21:20:45.634Z,0.27
2023-02-19T21:25:54.573Z,0.27
2023-02-19T21:31:02.127Z,0.27
2023-02-19T21:36:11.125Z,0.27
2023-02-19T21:41:19.146Z,0.26
2023-02-19T21:46:28.220Z,0.27
2023-02-19T21:51:37.199Z,0.32
2023-02-19T21:56:47.218Z,0.37
2023-02-19T22:01:58.165Z,0.40
2023-02-19T22:07:08.696Z,0.39
2023-02-19T22:12:16.128Z,0.36
2023-02-19T22:17:23.867Z,0.33
2023-02-19T22:22:31.317Z,0.30
2023-02-19T22:27:38.792Z,0.27
2023-02-19T22:32:46.272Z,0.25
2023-02-19T22:37:53.573Z,0.23
2023-02-19T22:43:00.809Z,0.22
2023-02-19T22:48:08.455Z,0.19
2023-02-19T22:53:16.673Z,0.21
2023-02-19T22:58:23.962Z,0.26
2023-02-19T23:03:31.167Z,0.31
2023-02-19T23:08:38.363Z,0.35
2023-02-19T23:13:45.787Z,0.34
2023-02-19T23:18:52.891Z,0.30
2023-02-19T23:24:00.488Z,0.25
2023-02-19T23:29:07.685Z,0.19
2023-02-19T23:34:15.102Z,0.15
2023-02-19T23:39:24.279Z,0.11
2023-02-19T23:44:31.473Z,0.08
2023-02-19T23:49:38.676Z,0.06
2023-02-19T23:54:45.976Z,0.08
2023-02-19T23:59:53.304Z,0.11
